Time;durP1;ratioP1;P1;durP2;ratioP2;P2;SDS_P1;SDS_P2;PMS_P1;PMS_P2;Temp;Humidity;BMP_temperature;BMP_pressure;BME280_temperature;BME280_humidity;BME280_pressure;Samples;Min_cycle;Max_cycle;Signal;HPM_P1;HPM_P2
2023/01/13 00:00:37;;;;;;;;;;;;;;;9.03;87.60;100021.75;4132330;28;19953;-66
2023/01/13 00:02:39;;;;;;;;;;;;;;;9.02;88.07;100025.44;4133064;28;20402;-66
2023/01/13 00:04:42;;;;;;;;;;;;;;;9.02;87.90;99999.34;4134429;28;20346;-66
2023/01/13 00:06:44;;;;;;;;;;;;;;;9.03;87.61;100024.44;4133515;28;20016;-66
2023/01/13 00:08:47;;;;;;;;;;;;;;;9.05;87.84;100026.94;4134218;28;20039;-66
2023/01/13 00:10:49;;;;;;;;;;;;;;;9.02;87.57;100034.34;4134202;28;20044;-66
2023/01/13 00:12:52;;;;;;;;;;;;;;;9.04;87.73;100022.56;4132932;28;20482;-66
2023/01/13 00:14:54;;;;;;;;;;;;;;;9.02;88.16;100020.88;4134309;28;20387;-66
2023/01/13 00:16:56;;;;;;;;;;;;;;;9.02;88.26;100006.59;4133184;28;20352;-67
2023/01/13 00:18:58;;;;;;;;;;;;;;;9.02;88.19;100023.59;4133909;28;20012;-67
2023/01/13 00:21:02;;;;;;;;;;;;;;;9.00;88.55;100019.41;4134043;28;20019;-66
2023/01/13 00:23:04;;;;;;;;;;;;;;;9.01;88.06;100024.63;4133339;28;20024;-66
2023/01/13 00:25:06;;;;;;;;;;;;;;;9.01;87.94;100007.59;4134211;28;19987;-67
2023/01/13 00:27:08;;;;;;;;;;;;;;;9.00;88.47;100014.03;4133058;28;20044;-66
2023/01/13 00:29:10;;;;;;;;;;;;;;;9.03;88.25;100002.91;4133945;28;20016;-67
2023/01/13 00:31:13;;;;;;;;;;;;;;;9.01;88.25;100021.94;4133897;28;20027;-67
2023/01/13 00:33:15;;;;;;;;;;;;;;;9.02;87.73;100007.41;4132980;28;20016;-67
2023/01/13 00:35:17;;;;;;;;;;;;;;;9.02;88.13;100012.81;4148810;28;20430;-67
2023/01/13 00:37:23;;;;;;;;;;;;;;;9.02;87.75;100028.97;4132556;28;20037;-67
2023/01/13 00:39:31;;;;;;;;;;;;;;;9.03;87.89;100019.06;4134227;28;19926;-66
2023/01/13 00:43:21;;;;;;;;;;;;;;;9.04;87.73;100003.72;4133709;28;20041;-65
2023/01/13 00:43:54;;;;;;;;;;;;;;;9.06;87.55;100005.22;4129975;28;21422;-66
2023/01/13 00:45:56;;;;;;;;;;;;;;;9.05;87.53;100003.53;4131749;28;19968;-66
2023/01/13 00:47:58;;;;;;;;;;;;;;;9.07;87.57;100014.13;4130627;28;20017;-67
2023/01/13 00:50:00;;;;;;;;;;;;;;;9.08;87.30;100008.56;4131611;28;20029;-67
2023/01/13 00:52:06;;;;;;;;;;;;;;;9.05;87.30;99998.16;4130003;28;20017;-67
2023/01/13 00:54:10;;;;;;;;;;;;;;;9.05;87.21;99998.16;4131603;28;19929;-67
2023/01/13 00:56:14;;;;;;;;;;;;;;;9.08;87.61;100002.34;4131718;28;19976;-67
2023/01/13 00:58:16;;;;;;;;;;;;;;;9.07;87.43;100004.19;4129886;28;20012;-67
2023/01/13 01:00:18;;;;;;;;;;;;;;;9.08;87.61;99999.66;4130914;28;20027;-67
2023/01/13 01:02:20;;;;;;;;;;;;;;;9.07;87.22;100009.56;4131119;28;20427;-67
2023/01/13 01:04:22;;;;;;;;;;;;;;;9.05;87.46;99998.16;4131690;28;20008;-67
2023/01/13 01:06:25;;;;;;;;;;;;;;;9.06;87.82;100009.75;4146301;28;19929;-67
2023/01/13 01:08:27;;;;;;;;;;;;;;;9.06;87.28;99996.28;4129542;28;20024;-67
2023/01/13 01:10:37;;;;;;;;;;;;;;;9.05;87.39;100013.47;4131596;28;20009;-67
2023/01/13 01:12:39;;;;;;;;;;;;;;;9.06;87.48;100002.53;4118829;28;19932;-67
2023/01/13 01:14:54;;;;;;;;;;;;;;;9.07;87.07;100016.81;4138426;28;20008;-67
2023/01/13 01:17:04;;;;;;;;;;;;;;;9.08;87.02;100008.56;4101588;28;20410;-67
2023/01/13 01:19:17;;;;;;;;;;;;;;;9.11;87.06;99994.72;4119560;28;19926;-67
2023/01/13 01:21:37;;;;;;;;;;;;;;;9.08;87.06;100003.16;4113728;28;19957;-67
2023/01/13 01:23:40;;;;;;;;;;;;;;;9.08;86.66;100000.47;4132022;28;19953;-67
2023/01/13 01:25:44;;;;;;;;;;;;;;;9.08;87.09;100019.31;4131511;28;20020;-66
2023/01/13 01:27:46;;;;;;;;;;;;;;;9.09;86.77;99996.75;4129621;28;20415;-66
2023/01/13 01:29:50;;;;;;;;;;;;;;;9.07;86.83;100003.34;4146092;28;19932;-66
2023/01/13 01:31:58;;;;;;;;;;;;;;;9.10;86.97;100011.06;4121500;28;19922;-66
2023/01/13 01:34:10;;;;;;;;;;;;;;;9.10;86.58;100003.81;4142876;28;19953;-67
2023/01/13 01:36:16;;;;;;;;;;;;;;;9.10;86.71;100000.28;4130931;28;19921;-66
2023/01/13 01:38:26;;;;;;;;;;;;;;;9.10;86.75;100006.50;4128228;28;19922;-68
2023/01/13 01:40:45;;;;;;;;;;;;;;;9.11;86.50;99997.41;4130844;28;19926;-68
2023/01/13 01:45:18;;;;;;;;;;;;;;;9.12;86.51;99985.63;4131077;28;19926;-67
2023/01/13 01:47:29;;;;;;;;;;;;;;;9.10;86.27;99997.59;4119627;28;20532;-67
2023/01/13 01:49:39;;;;;;;;;;;;;;;9.10;86.69;99998.41;4130180;28;20355;-67
2023/01/13 01:51:42;;;;;;;;;;;;;;;9.10;86.32;99990.34;4129273;28;20004;-67
2023/01/13 01:53:44;;;;;;;;;;;;;;;9.09;86.72;99990.53;4130096;28;20020;-67
2023/01/13 01:55:46;;;;;;;;;;;;;;;9.10;86.32;99993.03;4129372;28;20024;-67
2023/01/13 01:57:49;;;;;;;;;;;;;;;9.12;86.24;99990.16;4126874;28;20012;-67
2023/01/13 01:59:52;;;;;;;;;;;;;;;9.11;86.57;99983.13;4129183;28;20039;-67
2023/01/13 02:01:54;;;;;;;;;;;;;;;9.11;85.98;99981.25;4128806;28;20059;-67
2023/01/13 02:03:58;;;;;;;;;;;;;;;9.10;86.58;99992.22;4130127;28;20576;-66
2023/01/13 02:06:00;;;;;;;;;;;;;;;9.12;86.05;99980.22;4130080;28;20016;-67
2023/01/13 02:08:01;;;;;;;;;;;;;;;9.13;86.08;99970.28;4129244;28;20028;-67
2023/01/13 02:10:05;;;;;;;;;;;;;;;9.13;86.04;99971.09;4130184;28;19929;-68
2023/01/13 02:14:38;;;;;;;;;;;;;;;9.13;86.18;99983.75;4080087;29;20456;-67
2023/01/13 02:16:43;;;;;;;;;;;;;;;9.12;85.95;99969.47;4103406;28;20025;-68
2023/01/13 02:18:48;;;;;;;;;;;;;;;9.16;85.86;99978.00;4130280;28;20364;-67
2023/01/13 02:21:11;;;;;;;;;;;;;;;9.16;86.02;99984.22;4129660;28;20029;-67
2023/01/13 02:25:55;;;;;;;;;;;;;;;9.17;85.73;99983.19;4079424;29;20033;-67
2023/01/13 02:28:00;;;;;;;;;;;;;;;9.16;85.57;99968.03;4126382;28;20479;-67
2023/01/13 02:32:30;;;;;;;;;;;;;;;9.17;85.25;99961.66;4128123;28;20024;-67
2023/01/13 02:34:33;;;;;;;;;;;;;;;9.19;85.23;99966.84;4129733;28;20417;-68
2023/01/13 02:36:37;;;;;;;;;;;;;;;9.18;85.57;99949.84;4128846;28;20389;-68
2023/01/13 02:38:44;;;;;;;;;;;;;;;9.18;85.49;99967.84;4129512;28;20009;-68
2023/01/13 02:40:47;;;;;;;;;;;;;;;9.15;85.39;99952.91;4129490;28;20025;-68
2023/01/13 02:45:12;;;;;;;;;;;;;;;9.17;85.41;99960.81;4129443;28;20402;-67
2023/01/13 02:47:15;;;;;;;;;;;;;;;9.17;85.09;99958.94;4129240;28;20435;-67
2023/01/13 02:49:21;;;;;;;;;;;;;;;9.17;84.98;99961.66;4129206;28;20020;-67
2023/01/13 02:51:24;;;;;;;;;;;;;;;9.16;85.48;99968.03;4129156;28;19922;-68
2023/01/13 02:53:26;;;;;;;;;;;;;;;9.16;85.22;99951.88;4128789;28;20553;-67
2023/01/13 02:55:29;;;;;;;;;;;;;;;9.16;85.18;99956.44;4129813;28;20417;-67
2023/01/13 02:57:31;;;;;;;;;;;;;;;9.17;85.02;99958.13;4128904;28;20013;-67
2023/01/13 02:59:33;;;;;;;;;;;;;;;9.18;85.38;99952.53;4129278;28;20383;-67
2023/01/13 03:01:36;;;;;;;;;;;;;;;9.17;85.26;99972.41;4128640;28;20012;-67
2023/01/13 03:03:38;;;;;;;;;;;;;;;9.14;84.97;99964.72;4112307;28;20008;-67
2023/01/13 03:05:41;;;;;;;;;;;;;;;9.17;84.92;99944.66;4129148;28;20040;-67
2023/01/13 03:08:01;;;;;;;;;;;;;;;9.15;85.19;99963.69;4127422;28;20008;-67
2023/01/13 03:10:04;;;;;;;;;;;;;;;9.15;84.89;99952.91;4129040;28;20455;-67
2023/01/13 03:12:10;;;;;;;;;;;;;;;9.14;85.18;99955.81;4128196;28;19926;-68
2023/01/13 03:14:14;;;;;;;;;;;;;;;9.14;84.94;99963.88;4129176;28;20451;-67
2023/01/13 03:16:18;;;;;;;;;;;;;;;9.17;84.84;99958.13;4129431;28;20612;-67
2023/01/13 03:18:24;;;;;;;;;;;;;;;9.16;84.80;99957.25;4100293;28;20008;-67
2023/01/13 03:20:27;;;;;;;;;;;;;;;9.15;85.05;99949.38;4129186;28;20004;-67
2023/01/13 03:22:31;;;;;;;;;;;;;;;9.14;84.98;99948.53;4128779;28;20024;-67
2023/01/13 03:24:34;;;;;;;;;;;;;;;9.17;84.85;99947.34;4129087;28;19960;-67
2023/01/13 03:26:38;;;;;;;;;;;;;;;9.16;84.65;99945.66;4128441;28;20005;-67
2023/01/13 03:28:41;;;;;;;;;;;;;;;9.15;84.70;99933.19;4129068;28;20077;-67
2023/01/13 03:30:44;;;;;;;;;;;;;;;9.15;84.62;99934.06;4127159;28;19930;-67
2023/01/13 03:32:46;;;;;;;;;;;;;;;9.15;84.71;99936.75;4127551;28;19922;-67
2023/01/13 03:34:50;;;;;;;;;;;;;;;9.16;84.76;99948.34;4128907;28;20013;-67
2023/01/13 03:36:53;;;;;;;;;;;;;;;9.16;84.63;99951.06;4127328;28;20020;-67
2023/01/13 03:38:56;;;;;;;;;;;;;;;9.16;84.25;99941.09;4129262;28;20012;-67
2023/01/13 03:40:59;;;;;;;;;;;;;;;9.18;84.35;99952.53;4128743;28;20012;-67
2023/01/13 03:45:22;;;;;;;;;;;;;;;9.18;84.15;99938.22;4129056;28;20176;-68
2023/01/13 03:47:25;;;;;;;;;;;;;;;9.17;84.32;99945.47;4128535;28;20452;-67
2023/01/13 03:49:28;;;;;;;;;;;;;;;9.17;84.32;99950.88;4129380;28;20004;-67
2023/01/13 03:51:31;;;;;;;;;;;;;;;9.18;84.45;99951.69;4128880;28;20016;-67
2023/01/13 03:53:34;;;;;;;;;;;;;;;9.20;84.39;99950.50;4127790;28;19922;-68
2023/01/13 03:55:37;;;;;;;;;;;;;;;9.19;84.04;99945.28;4128868;28;20016;-67
2023/01/13 03:57:41;;;;;;;;;;;;;;;9.18;84.30;99952.53;4127858;28;19965;-67
2023/01/13 03:59:44;;;;;;;;;;;;;;;9.18;84.23;99963.31;4128102;28;20000;-67
2023/01/13 04:01:47;;;;;;;;;;;;;;;9.22;84.13;99952.16;4127836;28;20024;-67
2023/01/13 04:03:50;;;;;;;;;;;;;;;9.20;84.11;99946.97;4129095;28;20016;-68
2023/01/13 04:05:54;;;;;;;;;;;;;;;9.22;83.67;99949.47;4128993;28;20359;-68
2023/01/13 04:07:59;;;;;;;;;;;;;;;9.19;83.95;99932.66;4126911;28;20021;-68
2023/01/13 04:10:01;;;;;;;;;;;;;;;9.21;83.67;99937.84;4128845;28;20004;-68
2023/01/13 04:12:06;;;;;;;;;;;;;;;9.19;83.86;99950.69;4128287;28;20020;-68
2023/01/13 04:14:09;;;;;;;;;;;;;;;9.17;83.71;99942.78;4128653;28;19922;-67
2023/01/13 04:16:11;;;;;;;;;;;;;;;9.18;83.80;99936.38;4128933;28;20009;-67
2023/01/13 04:18:15;;;;;;;;;;;;;;;9.17;83.61;99933.88;4128258;28;20439;-67
2023/01/13 04:20:17;;;;;;;;;;;;;;;9.17;84.03;99933.88;4131769;28;20008;-66
2023/01/13 04:22:19;;;;;;;;;;;;;;;9.16;84.05;99933.03;4130362;28;20350;-66
2023/01/13 04:24:23;;;;;;;;;;;;;;;9.18;83.77;99933.69;4132317;28;20020;-67
2023/01/13 04:26:25;;;;;;;;;;;;;;;9.15;83.83;99928.66;4131893;28;20021;-67
2023/01/13 04:28:29;;;;;;;;;;;;;;;9.15;83.74;99938.59;4131423;28;20020;-68
2023/01/13 04:30:31;;;;;;;;;;;;;;;9.15;83.92;99930.50;4131239;28;20016;-66
2023/01/13 04:32:33;;;;;;;;;;;;;;;9.15;83.85;99922.44;4131105;28;20548;-67
2023/01/13 04:34:37;;;;;;;;;;;;;;;9.15;83.85;99938.59;4131797;28;19954;-66
2023/01/13 04:36:39;;;;;;;;;;;;;;;9.15;84.00;99936.75;4131206;28;20008;-67
2023/01/13 04:38:41;;;;;;;;;;;;;;;9.16;83.71;99940.28;4146607;28;19972;-66
2023/01/13 04:40:44;;;;;;;;;;;;;;;9.15;83.86;99935.91;4131281;28;19976;-67
2023/01/13 04:42:46;;;;;;;;;;;;;;;9.15;83.61;99936.75;4130153;28;20017;-67
2023/01/13 04:44:48;;;;;;;;;;;;;;;9.15;83.88;99938.59;4131519;28;20024;-67
2023/01/13 04:46:50;;;;;;;;;;;;;;;9.13;83.90;99946.88;4130478;28;20009;-67
2023/01/13 04:48:52;;;;;;;;;;;;;;;9.13;83.81;99937.94;4131417;28;20012;-67
2023/01/13 04:50:54;;;;;;;;;;;;;;;9.12;83.85;99945.22;4130470;28;20009;-67
2023/01/13 04:52:59;;;;;;;;;;;;;;;9.14;83.67;99955.81;4130109;28;19922;-67
2023/01/13 04:55:01;;;;;;;;;;;;;;;9.14;83.81;99956.63;4130927;28;19928;-67
2023/01/13 04:57:05;;;;;;;;;;;;;;;9.14;83.42;99958.50;4130806;28;20013;-66
2023/01/13 04:59:07;;;;;;;;;;;;;;;9.13;83.47;99951.44;4130746;28;20029;-66
2023/01/13 05:01:09;;;;;;;;;;;;;;;9.11;83.68;99950.78;4130970;28;20012;-66
2023/01/13 05:03:11;;;;;;;;;;;;;;;9.10;83.66;99955.31;4130369;28;20049;-66
2023/01/13 05:05:13;;;;;;;;;;;;;;;9.11;83.97;99961.56;4130376;28;20008;-66
2023/01/13 05:07:15;;;;;;;;;;;;;;;9.11;83.96;99959.69;4130519;28;20012;-66
2023/01/13 05:09:17;;;;;;;;;;;;;;;9.18;83.74;99962.47;4131581;28;20086;-66
2023/01/13 05:18:20;;;;;;;;;;;;;;;9.18;83.61;99967.84;4129852;28;20020;-67
2023/01/13 05:20:22;;;;;;;;;;;;;;;9.19;83.49;99958.75;4130095;28;20016;-66
2023/01/13 05:27:04;;;;;;;;;;;;;;;9.14;83.83;99956.63;4128746;28;20004;-66
2023/01/13 05:29:21;;;;;;;;;;;;;;;9.15;83.76;99958.31;4130828;28;20036;-66
2023/01/13 05:31:24;;;;;;;;;;;;;;;9.15;83.83;99952.06;4128630;28;20037;-66
2023/01/13 05:33:26;;;;;;;;;;;;;;;9.14;83.76;99955.81;4130330;28;20028;-66
2023/01/13 05:35:29;;;;;;;;;;;;;;;9.14;83.91;99950.41;4130007;28;20008;-67
2023/01/13 05:37:35;;;;;;;;;;;;;;;9.13;83.65;99946.88;4121834;28;19929;-66
2023/01/13 05:44:09;;;;;;;;;;;;;;;9.15;83.53;99955.63;4098291;28;20020;-66
2023/01/13 05:46:11;;;;;;;;;;;;;;;9.14;83.88;99962.00;4130395;28;20447;-66
2023/01/13 05:48:14;;;;;;;;;;;;;;;9.15;83.93;99955.63;4128298;28;20354;-65
2023/01/13 05:50:17;;;;;;;;;;;;;;;9.16;83.80;99959.13;4129101;28;20509;-65
2023/01/13 05:52:19;;;;;;;;;;;;;;;9.16;83.61;99959.13;4129017;28;20398;-65
2023/01/13 05:54:21;;;;;;;;;;;;;;;9.16;83.45;99972.59;4130125;28;20024;-66
2023/01/13 05:56:23;;;;;;;;;;;;;;;9.16;83.57;99969.91;4128994;28;20504;-65
2023/01/13 05:58:25;;;;;;;;;;;;;;;9.18;83.77;99982.19;4127862;28;20288;-66
2023/01/13 06:00:27;;;;;;;;;;;;;;;9.19;83.49;99974.94;4127502;28;20044;-65
2023/01/13 06:02:29;;;;;;;;;;;;;;;9.20;83.59;99980.13;4127762;28;20417;-65
2023/01/13 06:04:32;;;;;;;;;;;;;;;9.21;83.25;99972.88;4127754;28;20016;-64
2023/01/13 06:06:34;;;;;;;;;;;;;;;9.20;83.50;99963.13;4127821;28;20018;-64
2023/01/13 06:08:36;;;;;;;;;;;;;;;9.19;83.49;99969.53;4129933;28;20100;-65
2023/01/13 06:10:38;;;;;;;;;;;;;;;9.18;83.65;99971.41;4127113;28;20389;-64
2023/01/13 06:12:40;;;;;;;;;;;;;;;9.20;83.18;99972.03;4128647;28;20024;-64
2023/01/13 06:14:42;;;;;;;;;;;;;;;9.18;83.39;99968.72;4128865;28;20262;-65
2023/01/13 06:16:44;;;;;;;;;;;;;;;9.20;83.36;99982.00;4127378;28;20012;-64
2023/01/13 06:18:46;;;;;;;;;;;;;;;9.20;83.57;99965.84;4129730;28;20416;-62
2023/01/13 06:20:49;;;;;;;;;;;;;;;9.20;83.44;99971.22;4129048;28;20033;-65
2023/01/13 06:22:52;;;;;;;;;;;;;;;9.20;83.44;99987.38;4128835;28;20442;-64
2023/01/13 06:24:54;;;;;;;;;;;;;;;9.17;83.11;99961.66;4126816;28;20028;-63
2023/01/13 06:26:56;;;;;;;;;;;;;;;9.23;83.08;99992.38;4116741;28;19930;-64
2023/01/13 06:28:58;;;;;;;;;;;;;;;9.22;83.35;99987.19;4121259;28;19968;-62
2023/01/13 06:31:00;;;;;;;;;;;;;;;9.24;83.46;99998.63;4118514;28;19925;-65
2023/01/13 06:33:03;;;;;;;;;;;;;;;9.26;83.19;100000.09;4128966;28;20013;-64
2023/01/13 06:35:06;;;;;;;;;;;;;;;9.28;83.41;100005.28;4130515;28;20020;-65
2023/01/13 06:37:10;;;;;;;;;;;;;;;9.31;83.28;100005.78;4129412;28;20445;-61
2023/01/13 06:39:15;;;;;;;;;;;;;;;9.32;83.36;99993.13;4130854;28;19957;-65
2023/01/13 06:41:17;;;;;;;;;;;;;;;9.31;83.38;99992.28;4129933;28;20020;-64
2023/01/13 06:43:18;;;;;;;;;;;;;;;9.31;83.21;99995.00;4129269;28;20029;-63
2023/01/13 06:45:19;;;;;;;;;;;;;;;9.30;83.55;99990.63;4130149;28;19983;-62
2023/01/13 06:47:22;;;;;;;;;;;;;;;9.30;83.40;99995.19;4128729;28;20448;-62
2023/01/13 06:49:24;;;;;;;;;;;;;;;9.30;83.38;99990.63;4130511;28;20016;-63
2023/01/13 06:51:26;;;;;;;;;;;;;;;9.32;83.46;99993.94;4129998;28;20048;-61
2023/01/13 06:53:29;;;;;;;;;;;;;;;9.31;83.45;99981.53;4129347;28;20053;-62
2023/01/13 06:55:31;;;;;;;;;;;;;;;9.31;83.60;99953.72;4129823;28;20121;-63
2023/01/13 06:57:33;;;;;;;;;;;;;;;9.28;83.59;99973.81;4128269;28;20371;-62
2023/01/13 06:59:35;;;;;;;;;;;;;;;9.29;83.55;99977.31;4129341;28;20016;-62
2023/01/13 07:01:37;;;;;;;;;;;;;;;9.29;83.81;99988.09;4129084;28;20104;-63
2023/01/13 07:03:40;;;;;;;;;;;;;;;9.31;83.50;99991.44;4129473;28;20447;-62
2023/01/13 07:05:42;;;;;;;;;;;;;;;9.33;83.53;99997.50;4128601;28;20019;-63
2023/01/13 07:07:44;;;;;;;;;;;;;;;9.34;83.35;99996.47;4128767;28;20522;-63
2023/01/13 07:09:47;;;;;;;;;;;;;;;9.32;83.20;99990.44;4128635;28;20591;-63
2023/01/13 07:11:51;;;;;;;;;;;;;;;9.31;83.26;99988.75;4128605;28;20016;-62
2023/01/13 07:16:12;;;;;;;;;;;;;;;9.31;83.44;99986.06;4110578;28;20033;-63
2023/01/13 07:18:14;;;;;;;;;;;;;;;9.30;83.63;99996.00;4128775;28;20447;-64
2023/01/13 07:20:19;;;;;;;;;;;;;;;9.33;83.42;100000.19;4129108;28;20001;-63
2023/01/13 07:22:21;;;;;;;;;;;;;;;9.33;82.99;99987.53;4100046;28;19923;-63
2023/01/13 07:24:23;;;;;;;;;;;;;;;9.33;83.17;99978.63;4128012;28;20141;-63
2023/01/13 07:26:27;;;;;;;;;;;;;;;9.33;82.84;99973.25;4129358;28;20028;-64
2023/01/13 07:28:29;;;;;;;;;;;;;;;9.31;82.53;99989.59;4128525;28;20020;-64
2023/01/13 07:30:31;;;;;;;;;;;;;;;9.29;82.54;99986.22;4128855;28;20378;-63
2023/01/13 07:32:33;;;;;;;;;;;;;;;9.30;82.65;99973.63;4128346;28;20004;-64
2023/01/13 07:34:35;;;;;;;;;;;;;;;9.30;82.56;99979.00;4129997;28;20016;-63
2023/01/13 07:36:38;;;;;;;;;;;;;;;9.29;81.58;99961.97;4127786;28;20017;-64
2023/01/13 07:38:40;;;;;;;;;;;;;;;9.27;81.53;99952.44;4129194;28;20004;-64
2023/01/13 07:40:42;;;;;;;;;;;;;;;9.28;81.50;99963.03;4129279;28;19925;-64
2023/01/13 07:45:05;;;;;;;;;;;;;;;9.28;81.33;99981.88;4129201;28;20012;-64
2023/01/13 07:47:09;;;;;;;;;;;;;;;9.27;81.10;99979.38;4128698;28;20354;-64
2023/01/13 07:49:11;;;;;;;;;;;;;;;9.27;81.07;99988.28;4129263;28;20466;-64
2023/01/13 07:51:13;;;;;;;;;;;;;;;9.27;81.33;99993.69;4129361;28;20048;-64
2023/01/13 07:53:15;;;;;;;;;;;;;;;9.26;81.31;99997.38;4129817;28;20440;-64
2023/01/13 07:55:17;;;;;;;;;;;;;;;9.26;81.05;100010.03;4132827;28;20017;-64
2023/01/13 07:57:19;;;;;;;;;;;;;;;9.23;80.78;100003.16;4131802;28;20037;-64
2023/01/13 07:59:23;;;;;;;;;;;;;;;9.21;80.28;99999.81;4132397;28;20475;-64
2023/01/13 08:01:26;;;;;;;;;;;;;;;9.19;80.68;99991.91;4132527;28;19928;-64
2023/01/13 08:03:28;;;;;;;;;;;;;;;9.19;80.14;100007.25;4131719;28;20024;-62
2023/01/13 08:05:30;;;;;;;;;;;;;;;9.19;80.77;100009.94;4130636;28;20016;-63
2023/01/13 08:07:32;;;;;;;;;;;;;;;9.20;80.75;100011.63;4131430;28;20024;-63
2023/01/13 08:09:34;;;;;;;;;;;;;;;9.18;80.48;100024.44;4132463;28;20024;-64
2023/01/13 08:11:36;;;;;;;;;;;;;;;9.19;80.69;100034.19;4131537;28;20016;-62
2023/01/13 08:13:37;;;;;;;;;;;;;;;9.20;80.46;100047.50;4132460;28;20012;-62
2023/01/13 08:15:40;;;;;;;;;;;;;;;9.18;80.63;100051.38;4131947;28;19921;-64
2023/01/13 08:17:42;;;;;;;;;;;;;;;9.16;80.54;100042.66;4146182;28;20020;-64
2023/01/13 08:19:44;;;;;;;;;;;;;;;9.17;80.86;100050.56;4132739;28;20038;-64
2023/01/13 08:21:46;;;;;;;;;;;;;;;9.15;80.93;100041.81;4131380;28;20394;-63
2023/01/13 08:23:48;;;;;;;;;;;;;;;9.15;81.06;100038.28;4132241;28;20016;-64
2023/01/13 08:25:50;;;;;;;;;;;;;;;9.14;81.22;100044.72;4132516;28;20052;-64
2023/01/13 08:27:52;;;;;;;;;;;;;;;9.16;81.06;100054.25;4130937;28;20008;-64
2023/01/13 08:29:54;;;;;;;;;;;;;;;9.16;81.70;100064.22;4132461;28;20363;-64
2023/01/13 08:31:57;;;;;;;;;;;;;;;9.17;81.72;100069.41;4130885;28;20013;-64
2023/01/13 08:33:59;;;;;;;;;;;;;;;9.16;81.41;100073.13;4132288;28;20033;-64
2023/01/13 08:36:02;;;;;;;;;;;;;;;9.16;81.43;100061.50;4132065;28;20024;-64
2023/01/13 08:38:04;;;;;;;;;;;;;;;9.15;81.85;100057.13;4131256;28;20009;-64
2023/01/13 08:40:07;;;;;;;;;;;;;;;9.14;81.82;100040.13;4131809;28;20033;-64
2023/01/13 08:42:09;;;;;;;;;;;;;;;9.14;81.81;100020.47;4131149;28;20363;-64
2023/01/13 08:44:11;;;;;;;;;;;;;;;9.13;81.89;100024.16;4131978;28;20451;-64
2023/01/13 08:46:13;;;;;;;;;;;;;;;9.11;81.91;100018.97;4131486;28;20017;-63
2023/01/13 08:48:16;;;;;;;;;;;;;;;9.13;81.94;100025.00;4131572;28;20020;-63
2023/01/13 08:50:18;;;;;;;;;;;;;;;9.13;81.96;100043.03;4132084;28;20351;-63
2023/01/13 08:52:20;;;;;;;;;;;;;;;9.13;82.14;100051.09;4131264;28;20064;-64
2023/01/13 08:54:22;;;;;;;;;;;;;;;9.15;82.28;100065.22;4132327;28;20004;-64
2023/01/13 08:56:24;;;;;;;;;;;;;;;9.16;82.23;100065.03;4133339;28;20020;-64
2023/01/13 08:58:26;;;;;;;;;;;;;;;9.18;82.07;100078.31;4132357;28;20033;-64
2023/01/13 09:00:28;;;;;;;;;;;;;;;9.18;81.80;100081.88;4131557;28;20388;-64
2023/01/13 09:02:30;;;;;;;;;;;;;;;9.21;81.62;100086.03;4131846;28;20402;-64
2023/01/13 09:04:34;;;;;;;;;;;;;;;9.16;81.98;100081.19;4130947;28;20034;-64
2023/01/13 09:06:36;;;;;;;;;;;;;;;9.18;81.83;100094.47;4130928;28;20012;-64
2023/01/13 09:08:38;;;;;;;;;;;;;;;9.17;81.59;100092.81;4131477;28;20025;-64
2023/01/13 09:10:40;;;;;;;;;;;;;;;9.17;81.86;100079.34;4131011;28;20454;-64
2023/01/13 09:15:02;;;;;;;;;;;;;;;9.14;81.58;100005.13;4131281;28;20034;-64
2023/01/13 09:17:04;;;;;;;;;;;;;;;9.11;81.35;99948.09;4129738;28;20009;-64
2023/01/13 09:19:05;;;;;;;;;;;;;;;9.09;81.54;99974.34;4131692;28;20013;-64
2023/01/13 09:21:09;;;;;;;;;;;;;;;9.07;81.93;99988.00;4130647;28;20033;-64
2023/01/13 09:23:11;;;;;;;;;;;;;;;9.06;81.83;99969.34;4130726;28;19922;-63
2023/01/13 09:25:13;;;;;;;;;;;;;;;9.05;82.14;100006.22;4131074;28;20000;-64
2023/01/13 09:27:15;;;;;;;;;;;;;;;9.07;82.17;100041.06;4130422;28;20035;-64
2023/01/13 09:29:17;;;;;;;;;;;;;;;9.10;82.11;100038.81;4131196;28;20008;-63
2023/01/13 09:31:19;;;;;;;;;;;;;;;9.11;81.67;100050.47;4130531;28;20016;-63
2023/01/13 09:35:40;;;;;;;;;;;;;;;9.07;81.81;100039.19;4131073;28;20385;-63
2023/01/13 09:37:44;;;;;;;;;;;;;;;9.08;81.57;100058.91;4130437;28;20025;-64
2023/01/13 09:39:46;;;;;;;;;;;;;;;9.10;81.89;100046.09;4131303;28;20044;-63
2023/01/13 09:44:09;;;;;;;;;;;;;;;9.07;81.51;100025.72;4131072;28;19953;-63
2023/01/13 09:46:42;;;;;;;;;;;;;;;9.06;81.88;100028.59;4130344;28;20373;-64
2023/01/13 09:48:50;;;;;;;;;;;;;;;9.08;81.71;100018.50;4129123;28;20020;-63
2023/01/13 09:50:58;;;;;;;;;;;;;;;9.07;81.66;100032.97;4130694;28;20021;-63
2023/01/13 09:53:01;;;;;;;;;;;;;;;9.08;81.59;100040.88;4130080;28;20008;-63
2023/01/13 09:55:03;;;;;;;;;;;;;;;9.08;81.58;100053.53;4131252;28;20354;-63
2023/01/13 09:57:07;;;;;;;;;;;;;;;9.07;81.82;100046.44;4129968;28;20009;-64
2023/01/13 09:59:10;;;;;;;;;;;;;;;9.09;82.02;100045.25;4130892;28;20032;-63
2023/01/13 10:01:15;;;;;;;;;;;;;;;9.12;81.76;100055.66;4130661;28;20024;-63
2023/01/13 10:03:18;;;;;;;;;;;;;;;9.10;81.47;100060.38;4130063;28;20000;-63
2023/01/13 10:05:22;;;;;;;;;;;;;;;9.07;81.01;100068.00;4130653;28;19921;-64
2023/01/13 10:07:26;;;;;;;;;;;;;;;9.04;81.05;100076.44;4129957;28;20020;-63
2023/01/13 10:09:30;;;;;;;;;;;;;;;9.00;80.89;100082.19;4130623;28;20021;-65
2023/01/13 10:13:52;;;;;;;;;;;;;;;8.92;80.19;100047.28;4129568;28;21443;-62
2023/01/13 10:15:56;;;;;;;;;;;;;;;8.96;80.32;100061.19;4129850;28;20048;-62
2023/01/13 10:17:59;;;;;;;;;;;;;;;8.94;80.36;100063.25;4129159;28;20020;-63
2023/01/13 10:20:03;;;;;;;;;;;;;;;8.93;80.55;100075.84;4130890;28;20446;-64
2023/01/13 10:22:09;;;;;;;;;;;;;;;8.94;80.74;100077.53;4129094;28;20020;-62
2023/01/13 10:24:13;;;;;;;;;;;;;;;8.95;80.90;100067.59;4130553;28;20004;-63
2023/01/13 10:26:22;;;;;;;;;;;;;;;8.94;80.72;100066.78;4130571;28;19921;-63
2023/01/13 10:28:25;;;;;;;;;;;;;;;8.96;80.80;100067.41;4129496;28;20049;-63
2023/01/13 10:30:30;;;;;;;;;;;;;;;8.95;80.52;100068.44;4130334;28;20008;-63
2023/01/13 10:32:32;;;;;;;;;;;;;;;8.96;80.53;100059.34;4129312;28;20017;-63
2023/01/13 10:34:34;;;;;;;;;;;;;;;8.94;79.82;100060.56;4130246;28;20028;-63
2023/01/13 10:36:36;;;;;;;;;;;;;;;8.91;79.82;100067.13;4128666;28;20589;-64
2023/01/13 10:38:39;;;;;;;;;;;;;;;8.92;79.75;100076.91;4130099;28;20021;-63
2023/01/13 10:40:42;;;;;;;;;;;;;;;8.90;79.67;100065.44;4130220;28;20012;-63
2023/01/13 10:42:46;;;;;;;;;;;;;;;8.87;79.65;100062.28;4128960;28;20028;-64
2023/01/13 10:44:48;;;;;;;;;;;;;;;8.89;79.93;100055.72;4130250;28;20442;-64
2023/01/13 10:46:51;;;;;;;;;;;;;;;8.88;79.33;100067.50;4129110;28;19928;-64
2023/01/13 10:48:54;;;;;;;;;;;;;;;8.90;80.02;100061.94;4130022;28;20016;-64
2023/01/13 10:50:56;;;;;;;;;;;;;;;8.92;80.08;100067.97;4129559;28;20012;-63
2023/01/13 10:52:59;;;;;;;;;;;;;;;8.94;79.22;100057.84;4128972;28;20013;-62
2023/01/13 10:55:01;;;;;;;;;;;;;;;8.90;78.78;100060.06;4130001;28;20020;-64
2023/01/13 10:57:21;;;;;;;;;;;;;;;8.91;78.98;100060.91;4129160;28;20507;-64
2023/01/13 10:59:25;;;;;;;;;;;;;;;8.87;78.24;100054.22;4145025;28;20000;-64
2023/01/13 11:01:29;;;;;;;;;;;;;;;8.88;78.68;100066.66;4129450;28;20020;-64
2023/01/13 11:03:35;;;;;;;;;;;;;;;8.89;79.61;100057.59;4128993;28;20024;-62
2023/01/13 11:05:37;;;;;;;;;;;;;;;8.91;78.96;100074.38;4129840;28;20020;-64
2023/01/13 11:07:40;;;;;;;;;;;;;;;8.96;79.36;100050.44;4128618;28;19957;-64
2023/01/13 11:09:42;;;;;;;;;;;;;;;8.98;79.01;100086.94;4129397;28;20016;-63
2023/01/13 11:11:44;;;;;;;;;;;;;;;9.05;78.93;100062.78;4128794;28;20028;-64
2023/01/13 11:16:04;;;;;;;;;;;;;;;9.09;78.11;100066.81;4128936;28;20029;-63
2023/01/13 11:18:08;;;;;;;;;;;;;;;9.10;78.56;100068.47;4128600;28;20020;-63
2023/01/13 11:20:14;;;;;;;;;;;;;;;9.15;78.65;100071.47;4129638;28;20024;-64
2023/01/13 11:22:16;;;;;;;;;;;;;;;9.17;78.34;100079.34;4129008;28;20355;-63
2023/01/13 11:24:20;;;;;;;;;;;;;;;9.19;78.13;100067.34;4129709;28;20400;-61
2023/01/13 11:26:23;;;;;;;;;;;;;;;9.24;78.02;100056.03;4129713;28;20001;-63
2023/01/13 11:28:31;;;;;;;;;;;;;;;9.29;78.12;100059.00;4127901;28;20364;-63
2023/01/13 11:30:34;;;;;;;;;;;;;;;9.36;78.00;100092.28;4128922;28;20025;-63
2023/01/13 11:32:39;;;;;;;;;;;;;;;9.40;77.78;100059.56;4128344;28;20012;-63
2023/01/13 11:34:41;;;;;;;;;;;;;;;9.40;77.48;100063.09;4129650;28;20438;-64